Time;durP1;ratioP1;P1;durP2;ratioP2;P2;SDS_P1;SDS_P2;PMS_P1;PMS_P2;Temp;Humidity;BMP_temperature;BMP_pressure;BME280_temperature;BME280_humidity;BME280_pressure;Samples;Min_cycle;Max_cycle;Signal;HPM_P1;HPM_P2
2023/07/11 00:01:46;;;;;;;3.60;3.03;;;;;;;21.88;60.23;96961.38;10415449;28;20030;-32
2023/07/11 00:06:46;;;;;;;3.63;3.33;;;;;;;21.76;61.03;96956.41;10416325;28;20049;-32
2023/07/11 00:11:47;;;;;;;7.00;3.73;;;;;;;21.66;60.88;96948.88;10423421;28;20045;-32
2023/07/11 00:16:47;;;;;;;5.13;3.80;;;;;;;21.62;60.86;96955.66;10416073;28;20095;-33
2023/07/11 00:21:47;;;;;;;7.25;4.68;;;;;;;21.59;60.75;96942.09;10413446;28;20108;-32
2023/07/11 00:26:48;;;;;;;4.80;3.53;;;;;;;21.55;60.39;96941.28;10429295;28;20096;-32
2023/07/11 00:31:48;;;;;;;5.93;4.17;;;;;;;21.57;60.39;96944.63;10413970;28;20032;-32
2023/07/11 00:36:48;;;;;;;4.87;4.07;;;;;;;21.55;60.56;96945.53;10425105;28;20037;-33
2023/07/11 00:41:49;;;;;;;4.53;3.20;;;;;;;21.59;61.84;96942.94;10444177;28;20041;-33
2023/07/11 00:46:50;;;;;;;3.57;2.93;;;;;;;21.83;61.00;96942.75;10429731;28;20037;-32
2023/07/11 00:51:58;;;;;;;6.10;3.03;;;;;;;21.87;59.95;96939.31;10421299;28;20026;-33
2023/07/11 00:57:02;;;;;;;3.60;2.70;;;;;;;21.74;60.93;96940.28;10433455;28;20040;-32
2023/07/11 01:02:08;;;;;;;4.72;4.22;;;;;;;21.64;60.58;96936.09;10426049;28;20059;-32
2023/07/11 01:07:10;;;;;;;7.20;4.15;;;;;;;21.62;60.68;96929.31;10421741;28;20025;-31
2023/07/11 01:12:13;;;;;;;5.63;4.40;;;;;;;21.59;60.48;96921.72;10421488;28;20048;-32
2023/07/11 01:17:20;;;;;;;6.57;4.03;;;;;;;21.58;60.44;96920.03;10414941;28;20401;-32
2023/07/11 01:22:23;;;;;;;7.25;3.45;;;;;;;21.56;60.23;96917.47;10416865;28;20060;-32
2023/07/11 01:27:23;;;;;;;3.45;3.15;;;;;;;21.52;60.35;96905.63;10412903;28;20029;-32
2023/07/11 01:32:24;;;;;;;3.97;3.00;;;;;;;21.69;60.78;96906.34;10453736;28;20044;-32
2023/07/11 01:37:24;;;;;;;3.20;2.90;;;;;;;21.87;60.69;96901.06;10413889;28;20044;-33
2023/07/11 01:42:26;;;;;;;2.72;2.30;;;;;;;21.85;59.81;96892.59;10416970;28;20328;-32
2023/07/11 01:47:26;;;;;;;4.05;2.53;;;;;;;21.71;60.63;96885.97;10419315;28;20071;-32
2023/07/11 01:52:27;;;;;;;5.53;4.37;;;;;;;21.64;60.57;96874.94;10412038;28;20108;-32
2023/07/11 01:57:27;;;;;;;3.33;2.93;;;;;;;21.62;60.63;96870.72;10428250;28;20559;-33
2023/07/11 02:02:27;;;;;;;4.70;3.90;;;;;;;21.58;60.41;96869.91;10427494;28;20037;-32
2023/07/11 02:07:28;;;;;;;5.33;4.63;;;;;;;21.57;60.20;96858.00;10428225;28;20075;-32
2023/07/11 02:12:28;;;;;;;5.15;4.15;;;;;;;21.58;60.28;96856.31;10450057;28;20276;-32
2023/07/11 02:17:29;;;;;;;5.33;3.50;;;;;;;21.56;60.27;96856.31;10427526;28;20511;-32
2023/07/11 02:22:29;;;;;;;3.20;2.80;;;;;;;21.75;60.59;96851.94;10434275;28;20407;-31
2023/07/11 02:27:29;;;;;;;3.80;2.65;;;;;;;21.90;60.38;96846.66;10437499;28;20055;-33
2023/07/11 02:32:30;;;;;;;4.33;2.33;;;;;;;21.79;60.16;96838.28;10426801;28;20044;-33
2023/07/11 02:37:30;;;;;;;3.63;3.33;;;;;;;21.67;60.45;96836.72;10442790;28;20287;-32
2023/07/11 02:42:30;;;;;;;3.93;3.50;;;;;;;21.64;60.32;96834.16;10422970;28;20041;-32
2023/07/11 02:47:31;;;;;;;6.23;3.63;;;;;;;21.60;60.22;96827.44;10426666;28;20538;-32
2023/07/11 02:52:33;;;;;;;7.10;4.10;;;;;;;21.59;60.10;96824.88;10442393;28;20474;-32
2023/07/11 02:57:40;;;;;;;7.10;3.97;;;;;;;21.58;60.17;96824.06;10426086;28;20044;-32
2023/07/11 03:02:40;;;;;;;6.82;4.47;;;;;;;21.58;59.78;96823.19;10425314;28;20082;-32
2023/07/11 03:07:41;;;;;;;5.13;3.53;;;;;;;21.60;61.33;96816.38;10422453;28;20545;-32
2023/07/11 03:12:41;;;;;;;3.03;2.73;;;;;;;21.83;60.31;96817.88;10409035;28;20045;-32
2023/07/11 03:17:41;;;;;;;2.80;2.58;;;;;;;21.92;59.76;96815.19;10409486;28;20060;-31
2023/07/11 03:22:42;;;;;;;2.50;2.30;;;;;;;21.78;60.32;96806.00;10417466;28;20037;-32
2023/07/11 03:27:43;;;;;;;3.97;3.45;;;;;;;21.69;60.92;96799.31;10426093;28;20071;-32
2023/07/11 03:32:44;;;;;;;5.97;3.63;;;;;;;21.63;60.00;96799.34;10414192;28;20033;-32
2023/07/11 03:37:44;;;;;;;5.83;3.43;;;;;;;21.59;60.18;96795.16;10416622;28;20068;-31
2023/07/11 03:42:44;;;;;;;5.57;3.30;;;;;;;21.59;60.12;96790.06;10416966;28;20036;-32
2023/07/11 03:47:45;;;;;;;4.03;3.63;;;;;;;21.57;59.87;96786.66;10417380;28;20040;-32
2023/07/11 03:52:45;;;;;;;3.50;3.07;;;;;;;21.56;59.79;96784.16;10430125;28;20037;-31
2023/07/11 03:57:46;;;;;;;3.65;3.10;;;;;;;21.64;61.34;96782.38;10415675;28;20057;-31
2023/07/11 04:02:46;;;;;;;7.63;6.37;;;;;;;22.19;67.43;96779.16;10420580;28;20025;-32
2023/07/11 04:07:46;;;;;;;6.93;5.87;;;;;;;22.18;68.08;96769.81;10415920;28;20044;-32
2023/07/11 04:12:47;;;;;;;7.70;6.07;;;;;;;22.14;66.80;96786.00;10408669;28;20076;-33
2023/07/11 04:17:47;;;;;;;8.23;5.70;;;;;;;22.20;66.15;96778.28;10430628;28;20068;-32
2023/07/11 04:22:48;;;;;;;11.07;6.35;;;;;;;22.23;68.29;96780.78;10425767;28;20037;-32
2023/07/11 04:27:48;;;;;;;8.17;5.53;;;;;;;22.03;66.47;96782.75;10418059;28;20403;-32
2023/07/11 04:32:51;;;;;;;9.33;6.40;;;;;;;22.21;68.25;96782.50;10423674;28;20039;-33
2023/07/11 04:37:51;;;;;;;7.68;5.60;;;;;;;21.94;66.32;96772.69;10422390;28;20044;-32
2023/07/11 04:42:52;;;;;;;9.33;4.83;;;;;;;21.94;66.06;96777.78;10424575;28;20029;-32
2023/07/11 04:47:52;;;;;;;7.83;4.60;;;;;;;21.89;64.59;96764.25;10414380;28;20025;-32
2023/07/11 04:52:53;;;;;;;9.25;4.15;;;;;;;22.02;64.43;96770.03;10422365;28;20816;-32
2023/07/11 04:57:53;;;;;;;6.33;3.37;;;;;;;21.97;61.81;96757.34;10422069;28;20021;-33
2023/07/11 05:02:53;;;;;;;6.67;3.93;;;;;;;21.83;62.96;96766.03;10422441;28;20059;-32
2023/07/11 05:07:56;;;;;;;7.70;4.47;;;;;;;21.78;62.88;96758.44;10419367;28;20032;-32
2023/07/11 05:12:56;;;;;;;6.35;5.18;;;;;;;21.72;61.99;96763.59;10413836;28;20033;-32
2023/07/11 05:17:56;;;;;;;9.37;4.27;;;;;;;21.64;62.68;96752.63;10419370;28;20034;-32
2023/07/11 05:22:57;;;;;;;5.93;3.87;;;;;;;21.67;61.62;96759.44;10412743;28;20071;-32
2023/07/11 05:27:57;;;;;;;6.87;4.33;;;;;;;21.66;61.46;96761.13;10412691;28;20037;-32
2023/07/11 05:32:57;;;;;;;8.10;4.93;;;;;;;21.64;61.05;96756.88;10420282;28;20435;-32
2023/07/11 05:37:58;;;;;;;5.80;3.43;;;;;;;21.77;61.53;96749.09;10421790;28;20047;-32
2023/07/11 05:42:58;;;;;;;6.45;3.40;;;;;;;21.96;61.34;96744.59;10429785;28;20484;-32
2023/07/11 05:47:59;;;;;;;3.67;3.17;;;;;;;21.87;60.88;96745.56;10427438;28;20049;-32
2023/07/11 05:52:59;;;;;;;10.52;3.50;;;;;;;21.76;61.48;96737.22;10414297;28;20048;-32
2023/07/11 05:58:00;;;;;;;7.67;4.07;;;;;;;21.71;61.08;96730.50;10420288;28;20091;-32
2023/07/11 06:03:00;;;;;;;4.57;3.63;;;;;;;21.68;61.08;96727.97;10418631;28;20354;-34
2023/07/11 06:08:01;;;;;;;4.23;3.67;;;;;;;21.65;61.02;96726.31;10411398;28;20029;-33
2023/07/11 06:13:01;;;;;;;7.00;4.65;;;;;;;21.66;60.82;96724.63;10414202;28;20408;-32
2023/07/11 06:18:02;;;;;;;7.85;5.05;;;;;;;21.65;60.74;96721.22;10414780;28;20496;-31
2023/07/11 06:23:02;;;;;;;7.70;4.32;;;;;;;21.67;60.53;96724.59;10411916;28;20037;-33
2023/07/11 06:28:03;;;;;;;3.60;3.20;;;;;;;21.85;61.06;96724.38;10425704;28;20048;-32
2023/07/11 06:33:03;;;;;;;2.72;2.50;;;;;;;21.96;60.34;96725.06;10428392;28;20029;-35
2023/07/11 06:38:04;;;;;;;4.70;2.70;;;;;;;21.83;61.05;96728.66;10419396;28;20033;-32
2023/07/11 06:43:04;;;;;;;3.87;3.30;;;;;;;21.74;61.03;96728.75;10411143;28;20067;-31
2023/07/11 06:48:05;;;;;;;4.30;3.90;;;;;;;21.70;60.55;96731.34;10415831;28;20044;-31
2023/07/11 06:53:05;;;;;;;4.03;3.63;;;;;;;21.68;60.63;96728.84;10420887;28;20041;-33
2023/07/11 06:58:05;;;;;;;3.87;3.37;;;;;;;21.66;60.58;96735.63;10423661;28;20517;-33
2023/07/11 07:03:10;;;;;;;4.00;3.60;;;;;;;21.64;60.52;96722.03;10413178;28;20037;-31
2023/07/11 07:08:10;;;;;;;7.25;3.92;;;;;;;21.63;60.49;96720.38;10425597;28;20095;-32
2023/07/11 07:13:11;;;;;;;3.60;3.23;;;;;;;21.69;62.26;96707.59;10425154;28;20502;-31
2023/07/11 07:18:11;;;;;;;2.97;2.67;;;;;;;21.91;61.00;96711.53;10409135;28;20029;-33
2023/07/11 07:23:12;;;;;;;2.50;2.30;;;;;;;21.93;60.26;96711.50;10416387;28;20044;-32
2023/07/11 07:28:13;;;;;;;4.15;2.83;;;;;;;21.80;60.83;96713.38;10414749;28;20056;-32
2023/07/11 07:33:14;;;;;;;5.03;4.53;;;;;;;21.74;60.68;96700.72;10428607;28;20464;-32
2023/07/11 07:38:14;;;;;;;6.15;4.40;;;;;;;21.71;60.44;96703.31;10414018;28;20033;-32
2023/07/11 07:43:14;;;;;;;3.80;3.33;;;;;;;21.70;60.72;96701.63;10424866;28;20063;-33
2023/07/11 07:48:15;;;;;;;4.27;3.77;;;;;;;21.67;60.60;96690.63;10416410;28;20091;-32
2023/07/11 07:53:17;;;;;;;4.13;3.72;;;;;;;21.65;60.57;96685.53;10442143;28;20052;-33
2023/07/11 07:58:17;;;;;;;5.80;4.18;;;;;;;21.67;60.49;96681.28;10425711;28;20396;-32
2023/07/11 08:03:18;;;;;;;4.10;3.57;;;;;;;21.80;60.95;96690.44;10428142;28;20029;-33
2023/07/11 08:08:18;;;;;;;4.50;3.57;;;;;;;21.99;60.61;96676.56;10431755;28;20091;-33
2023/07/11 08:13:18;;;;;;;3.03;2.45;;;;;;;21.90;60.65;96679.25;10416023;28;20292;-32
2023/07/11 08:18:19;;;;;;;3.77;2.93;;;;;;;21.78;60.93;96674.34;10417545;28;20021;-32
2023/07/11 08:23:20;;;;;;;4.15;3.75;;;;;;;21.76;60.80;96662.47;10419847;28;20045;-33
2023/07/11 08:28:20;;;;;;;5.18;3.88;;;;;;;21.74;60.75;96667.56;10440384;28;20502;-33
2023/07/11 08:33:21;;;;;;;4.70;3.90;;;;;;;21.72;60.66;96648.91;10428309;28;20037;-33
2023/07/11 08:38:22;;;;;;;4.97;4.43;;;;;;;21.71;60.70;96657.44;10414946;28;20029;-32
2023/07/11 08:43:29;;;;;;;5.05;4.55;;;;;;;21.72;61.04;96648.09;10430848;28;20484;-33
2023/07/11 08:48:41;;;;;;;5.28;4.20;;;;;;;21.73;61.42;96650.59;10414556;28;20557;-33
2023/07/11 08:53:48;;;;;;;3.00;2.60;;;;;;;21.91;60.97;96640.13;10418876;28;20484;-32
2023/07/11 08:58:49;;;;;;;;;;;;;;;22.03;60.05;96637.44;10413401;28;20057;-32
2023/07/11 09:03:50;;;;;;;4.03;2.85;;;;;;;21.88;61.48;96635.09;10414718;28;19920;-32
2023/07/11 09:08:54;;;;;;;3.22;2.60;;;;;;;21.78;61.04;96633.56;10427615;28;20506;-32
2023/07/11 09:14:19;;;;;;;4.50;4.10;;;;;;;21.76;61.15;96629.34;10413746;28;20033;-33
2023/07/11 09:19:56;;;;;;;4.35;3.65;;;;;;;21.77;61.17;96628.47;10419177;28;20025;-32
2023/07/11 09:25:21;;;;;;;4.65;3.97;;;;;;;21.75;60.90;96613.22;10422114;28;20408;-33
2023/07/11 09:30:30;;;;;;;4.30;3.78;;;;;;;21.76;61.07;96619.16;10413242;28;20124;-32
2023/07/11 09:35:32;;;;;;;4.63;4.10;;;;;;;21.72;60.92;96603.06;10414771;28;20086;-32
2023/07/11 09:40:39;;;;;;;3.00;2.65;;;;;;;21.82;62.68;96599.50;10412382;28;20515;-32
2023/07/11 09:45:42;;;;;;;;;;;;;;;22.02;60.77;96601.75;10415382;28;20041;-32
2023/07/11 09:51:24;;;;;;;2.50;2.30;;;;;;;21.95;61.02;96601.00;10418500;28;20283;-33
2023/07/11 09:56:25;;;;;;;2.70;2.50;;;;;;;21.83;61.41;96601.22;10410084;28;20090;-33
2023/07/11 10:01:37;;;;;;;4.80;4.32;;;;;;;21.80;61.22;96598.69;10415081;28;20037;-32
2023/07/11 10:06:52;;;;;;;4.65;3.90;;;;;;;21.79;61.45;96591.06;10411784;28;20037;-32
2023/07/11 10:12:03;;;;;;;4.65;4.10;;;;;;;21.81;61.87;96585.06;10424801;28;20029;-33
2023/07/11 10:17:25;;;;;;;4.53;4.13;;;;;;;21.78;61.29;96592.78;10420431;28;20446;-33
2023/07/11 10:22:29;;;;;;;4.30;3.90;;;;;;;21.78;61.10;96584.28;10411391;28;20068;-33
2023/07/11 10:27:34;;;;;;;3.55;3.25;;;;;;;21.80;64.24;96575.75;10421078;28;20029;-32
2023/07/11 10:32:50;;;;;;;3.03;2.55;;;;;;;22.00;61.54;96568.66;10413885;28;20403;-34
2023/07/11 10:38:01;;;;;;;2.85;2.55;;;;;;;22.01;61.47;96564.38;10418894;28;20064;-32
2023/07/11 10:43:17;;;;;;;2.95;2.65;;;;;;;21.88;61.67;96558.63;10418864;28;20041;-33
2023/07/11 10:48:32;;;;;;;3.35;3.05;;;;;;;21.85;61.64;96548.50;10410081;28;20037;-32
2023/07/11 10:53:45;;;;;;;5.38;4.25;;;;;;;21.83;62.13;96555.34;10432006;28;20044;-33
2023/07/11 10:58:46;;;;;;;4.10;3.70;;;;;;;21.81;61.63;96546.84;10410536;28;20403;-32
2023/07/11 11:03:52;;;;;;;4.05;3.65;;;;;;;21.80;61.41;96545.16;10425404;28;20032;-32
2023/07/11 11:09:07;;;;;;;4.20;3.80;;;;;;;21.80;61.83;96537.50;10412909;28;20064;-32
2023/07/11 11:14:15;;;;;;;4.10;3.50;;;;;;;21.77;61.76;96524.84;10409338;28;20033;-33
2023/07/11 11:19:28;;;;;;;2.80;2.60;;;;;;;21.98;61.77;96519.38;10426526;28;20124;-31
2023/07/11 11:24:47;;;;;;;2.67;2.47;;;;;;;22.08;60.81;96509.88;10413033;28;20064;-33
2023/07/11 11:30:06;;;;;;;3.15;2.85;;;;;;;21.93;62.22;96505.88;10414029;28;20040;-33
2023/07/11 11:35:16;;;;;;;3.05;2.75;;;;;;;21.89;61.60;96504.22;10415555;28;20453;-32
2023/07/11 11:40:22;;;;;;;4.38;3.85;;;;;;;21.86;62.04;96494.09;10408520;28;20042;-33
2023/07/11 11:45:23;;;;;;;3.95;3.55;;;;;;;21.84;61.62;96479.69;10408925;28;20033;-33
2023/07/11 11:50:25;;;;;;;4.15;3.75;;;;;;;21.85;61.76;96486.47;10417344;28;20318;-32
2023/07/11 11:55:38;;;;;;;3.88;3.58;;;;;;;21.83;61.60;96468.69;10412342;28;20450;-32
2023/07/11 12:00:49;;;;;;;4.07;3.67;;;;;;;21.84;62.40;96462.72;10437734;28;20053;-33
2023/07/11 12:05:51;;;;;;;3.33;3.03;;;;;;;21.89;63.96;96463.44;10407918;28;20368;-32
2023/07/11 12:11:07;;;;;;;3.70;2.30;;;;;;;22.09;62.04;96455.44;10411543;28;20036;-32
2023/07/11 12:16:20;;;;;;;3.63;2.42;;;;;;;22.05;62.49;96457.22;10410278;28;20063;-32
2023/07/11 12:21:38;;;;;;;3.25;2.95;;;;;;;21.94;62.89;96451.47;10405198;28;20115;-33
2023/07/11 12:26:38;;;;;;;5.55;3.50;;;;;;;21.91;63.00;96445.59;10403621;28;20037;-33
2023/07/11 12:31:39;;;;;;;4.20;3.40;;;;;;;21.89;62.67;96439.69;10307477;28;20050;-33
2023/07/11 12:37:00;;;;;;;4.00;3.33;;;;;;;21.83;62.20;96445.75;10294588;28;20281;-32
2023/07/11 12:42:55;;;;;;;4.50;3.63;;;;;;;21.84;62.28;96447.41;10294586;28;20042;-32
2023/07/11 12:48:15;;;;;;;4.82;3.75;;;;;;;21.86;62.19;96444.81;10312907;28;20053;-32
2023/07/11 12:53:17;;;;;;;7.03;4.53;;;;;;;21.88;64.22;96441.38;10293350;28;20077;-32
2023/07/11 12:58:17;;;;;;;4.15;3.15;;;;;;;22.05;62.36;96434.28;10294510;28;20088;-33
2023/07/11 13:03:26;;;;;;;3.20;2.80;;;;;;;22.10;61.18;96427.38;10293878;28;20455;-33
2023/07/11 13:08:32;;;;;;;3.15;2.85;;;;;;;21.97;62.73;96428.47;10291348;28;20042;-32
2023/07/11 13:13:38;;;;;;;4.22;3.38;;;;;;;21.92;62.89;96414.13;10291175;28;20044;-32
2023/07/11 13:18:43;;;;;;;4.30;3.90;;;;;;;21.92;62.86;96421.78;10290996;28;20045;-33
2023/07/11 13:23:46;;;;;;;4.07;3.67;;;;;;;21.89;62.73;96412.47;10291988;28;20121;-33
2023/07/11 13:29:04;;;;;;;5.85;4.10;;;;;;;21.89;62.48;96407.38;10291200;28;20402;-35
2023/07/11 13:34:27;;;;;;;6.07;3.72;;;;;;;21.89;63.35;96397.19;10293460;28;20130;-32
2023/07/11 13:39:34;;;;;;;6.05;4.10;;;;;;;21.88;62.79;96390.41;10290297;28;20034;-33
2023/07/11 13:44:38;;;;;;;3.20;2.55;;;;;;;22.01;62.81;96391.88;10293061;28;20034;-33
2023/07/11 13:49:43;;;;;;;2.88;2.65;;;;;;;22.16;61.76;96389.00;10292440;28;20038;-32
2023/07/11 13:54:50;;;;;;;2.83;2.53;;;;;;;22.02;62.85;96385.91;10289246;28;20057;-33
2023/07/11 13:59:51;;;;;;;2.97;2.63;;;;;;;21.96;62.41;96391.09;10289290;28;20038;-33
2023/07/11 14:04:51;;;;;;;4.10;3.47;;;;;;;21.95;63.04;96371.59;10293944;28;20030;-32
2023/07/11 14:09:52;;;;;;;5.70;4.43;;;;;;;21.92;63.12;96371.66;10293125;28;20281;-32
2023/07/11 14:14:52;;;;;;;5.03;4.30;;;;;;;21.85;62.05;96352.25;10290071;28;20041;-32
2023/07/11 14:19:53;;;;;;;4.32;3.78;;;;;;;21.87;62.86;96350.50;10287905;28;20129;-32
2023/07/11 14:24:53;;;;;;;4.22;3.83;;;;;;;21.89;62.53;96351.28;10291193;28;20033;-32
2023/07/11 14:29:54;;;;;;;6.35;3.85;;;;;;;21.91;64.19;96352.09;10290167;28;20027;-33
2023/07/11 14:34:54;;;;;;;8.63;4.50;;;;;;;22.07;63.55;96350.13;10287694;28;20034;-33
2023/07/11 14:39:56;;;;;;;4.10;3.63;;;;;;;22.16;61.71;96353.28;10288351;28;20093;-32
2023/07/11 14:44:56;;;;;;;8.45;3.85;;;;;;;22.03;63.32;96356.97;10289102;28;20077;-32
2023/07/11 14:49:58;;;;;;;9.30;3.80;;;;;;;21.97;63.29;96344.34;10288133;28;20026;-32
2023/07/11 14:54:59;;;;;;;6.22;4.15;;;;;;;21.96;63.08;96337.56;10291193;28;20320;-32
2023/07/11 15:00:00;;;;;;;11.45;5.43;;;;;;;21.96;62.98;96336.72;10288137;28;20050;-32
2023/07/11 15:05:05;;;;;;;11.45;5.13;;;;;;;21.93;63.26;96327.44;10289786;28;20042;-33
2023/07/11 15:10:07;;;;;;;10.70;5.70;;;;;;;21.92;62.81;96322.38;10288268;28;21293;-32
2023/07/11 15:15:16;;;;;;;9.30;5.28;;;;;;;21.91;62.88;96311.31;10289197;28;20042;-32
2023/07/11 15:20:22;;;;;;;5.78;3.47;;;;;;;21.99;64.15;96301.00;10285605;28;20473;-33
2023/07/11 15:25:34;;;;;;;4.35;2.78;;;;;;;22.16;62.57;96289.56;10289330;28;20035;-32
2023/07/11 15:30:35;;;;;;;3.67;3.10;;;;;;;22.13;61.72;96284.53;10286545;28;20520;-32
2023/07/11 15:35:35;;;;;;;3.90;2.45;;;;;;;22.01;62.58;96274.59;10287411;28;20038;-32
2023/07/11 15:40:36;;;;;;;5.13;3.50;;;;;;;21.97;62.76;96257.66;10286354;28;20379;-32
2023/07/11 15:45:37;;;;;;;7.35;3.95;;;;;;;21.94;62.87;96257.75;10285997;28;20157;-33
2023/07/11 15:50:37;;;;;;;5.25;4.10;;;;;;;21.95;62.54;96244.13;10288920;28;20046;-31
2023/07/11 15:55:39;;;;;;;7.17;3.53;;;;;;;21.86;63.70;96238.38;10287848;28;20034;-32
2023/07/11 16:00:39;;;;;;;6.50;3.60;;;;;;;21.93;63.77;96239.94;10310933;28;20153;-31
2023/07/11 16:05:40;;;;;;;8.73;3.90;;;;;;;21.91;62.89;96227.22;10324973;28;20389;-35
2023/07/11 16:10:41;;;;;;;3.90;2.97;;;;;;;22.07;63.14;96217.53;10332884;28;20269;-32
2023/07/11 16:15:43;;;;;;;3.77;3.20;;;;;;;22.22;65.01;96207.81;10333891;28;20512;-32
2023/07/11 16:20:45;;;;;;;9.38;3.80;;;;;;;22.08;64.27;96194.53;10333357;28;20046;-31
2023/07/11 16:25:46;;;;;;;6.82;2.75;;;;;;;22.02;63.63;96194.69;10334550;28;20065;-32
2023/07/11 16:30:48;;;;;;;6.63;4.15;;;;;;;21.99;63.38;96173.53;10330842;28;20490;-32
2023/07/11 16:35:51;;;;;;;6.10;3.70;;;;;;;21.96;63.28;96159.13;10325664;28;20117;-33
2023/07/11 16:40:52;;;;;;;8.95;4.20;;;;;;;21.93;63.03;96143.91;10332823;28;20043;-31
2023/07/11 16:45:52;;;;;;;3.95;3.17;;;;;;;21.94;63.37;96135.41;10329378;28;20045;-31
2023/07/11 16:50:54;;;;;;;4.00;3.65;;;;;;;21.93;63.08;96108.25;10332977;28;20499;-31
2023/07/11 16:55:57;;;;;;;3.28;2.88;;;;;;;22.13;62.81;96090.75;10330037;28;20026;-32
2023/07/11 17:00:57;;;;;;;4.90;2.50;;;;;;;22.21;61.60;96058.25;10332474;28;20038;-32
2023/07/11 17:05:57;;;;;;;4.18;2.60;;;;;;;22.08;62.15;96031.38;10332736;28;20031;-32
2023/07/11 17:10:58;;;;;;;3.60;3.00;;;;;;;21.98;62.46;96019.72;10331985;28;20490;-32
2023/07/11 17:16:04;;;;;;;3.70;2.55;;;;;;;21.94;62.49;95996.91;10332435;28;20042;-32
2023/07/11 17:21:05;;;;;;;;;;;;;;;21.90;62.10;95985.94;10331167;28;20026;-33
2023/07/11 17:26:12;;;;;;;6.10;2.97;;;;;;;21.90;62.23;95975.75;10331655;28;19918;-32
2023/07/11 17:31:14;;;;;;;3.30;2.95;;;;;;;21.88;62.02;95990.25;10331374;28;20034;-32
2023/07/11 17:36:14;;;;;;;3.17;2.88;;;;;;;21.88;62.43;95971.59;10331146;28;20042;-32
2023/07/11 17:41:15;;;;;;;3.30;2.95;;;;;;;21.97;63.95;95969.63;10325707;28;20046;-32
2023/07/11 17:46:15;;;;;;;3.60;2.93;;;;;;;22.21;62.81;95953.72;10324647;28;20042;-30
2023/07/11 17:51:16;;;;;;;2.87;2.53;;;;;;;22.28;61.89;95946.72;10329612;28;20401;-32
2023/07/11 17:56:16;;;;;;;6.40;3.10;;;;;;;22.12;61.00;95941.19;10323062;28;20089;-32
2023/07/11 18:01:19;;;;;;;5.23;2.53;;;;;;;22.03;61.31;95946.53;10321994;28;20293;-33
2023/07/11 18:06:23;;;;;;;3.83;3.17;;;;;;;22.03;61.65;95938.03;10324794;28;20061;-32
2023/07/11 18:11:26;;;;;;;2.75;2.17;;;;;;;22.02;61.68;95944.03;10326040;28;20030;-32
2023/07/11 18:16:28;;;;;;;5.82;3.20;;;;;;;22.01;61.70;95897.31;10329570;28;20030;-33
2023/07/11 18:21:29;;;;;;;3.47;2.83;;;;;;;21.98;61.43;95878.72;10329098;28;20037;-32
2023/07/11 18:26:29;;;;;;;4.97;2.40;;;;;;;21.97;61.73;95814.16;10329581;28;20034;-32
2023/07/11 18:31:29;;;;;;;4.67;3.50;;;;;;;22.09;64.27;95839.31;10324569;28;20038;-32
2023/07/11 18:36:31;;;;;;;4.10;2.73;;;;;;;22.31;62.60;95890.56;10324941;28;20045;-32
2023/07/11 18:41:32;;;;;;;2.90;2.63;;;;;;;22.24;61.69;95876.28;10324370;28;20038;-33
2023/07/11 18:46:32;;;;;;;4.20;3.20;;;;;;;22.11;61.40;95883.44;10323737;28;20493;-33
2023/07/11 18:51:33;;;;;;;4.65;3.05;;;;;;;22.06;61.52;95885.28;10326652;28;20030;-31
2023/07/11 18:56:33;;;;;;;4.50;2.90;;;;;;;22.01;61.96;95887.13;10326733;28;20485;-33
2023/07/11 19:01:33;;;;;;;3.23;2.93;;;;;;;22.04;61.93;95906.56;10327313;28;20080;-33
2023/07/11 19:06:34;;;;;;;3.37;3.07;;;;;;;22.04;61.56;95952.47;10322909;28;20037;-32
2023/07/11 19:11:34;;;;;;;3.17;2.87;;;;;;;22.03;61.77;95989.88;10326539;28;20257;-32
2023/07/11 19:16:35;;;;;;;5.90;4.32;;;;;;;22.09;64.80;96144.41;10321566;28;20074;-32
2023/07/11 19:21:36;;;;;;;4.17;2.97;;;;;;;22.33;65.92;96384.41;10324576;28;20075;-32
2023/07/11 19:26:37;;;;;;;4.25;3.20;;;;;;;22.45;63.05;96516.84;10327799;28;20289;-32
2023/07/11 19:31:37;;;;;;;4.37;3.17;;;;;;;22.24;65.13;96573.31;10326895;28;20329;-33
2023/07/11 19:36:37;;;;;;;6.33;3.33;;;;;;;22.20;62.72;96616.75;10325521;28;20117;-32
2023/07/11 19:41:38;;;;;;;6.17;3.20;;;;;;;22.11;62.18;96668.75;10323777;28;20042;-32
2023/07/11 19:46:38;;;;;;;5.07;3.30;;;;;;;22.04;61.88;96667.16;10325705;28;20037;-32
2023/07/11 19:51:39;;;;;;;3.60;3.00;;;;;;;22.03;62.01;96647.63;10327439;28;20030;-32
2023/07/11 19:56:39;;;;;;;4.53;2.70;;;;;;;22.00;61.71;96634.94;10327230;28;20424;-32
2023/07/11 20:01:40;;;;;;;4.33;2.50;;;;;;;21.98;61.84;96636.63;10327168;28;20035;-32
2023/07/11 20:06:40;;;;;;;5.10;3.33;;;;;;;22.00;61.85;96645.13;10327996;28;20296;-32
2023/07/11 20:11:40;;;;;;;3.30;2.33;;;;;;;22.28;62.85;96643.84;10327002;28;20092;-32
2023/07/11 20:16:41;;;;;;;2.27;2.07;;;;;;;22.36;62.55;96608.84;10327214;28;20440;-32
2023/07/11 20:21:41;;;;;;;2.17;1.93;;;;;;;22.21;61.99;96581.03;10323209;28;20456;-32
2023/07/11 20:26:42;;;;;;;2.90;2.60;;;;;;;22.08;61.58;96559.13;10323473;28;20432;-33
2023/07/11 20:31:42;;;;;;;3.20;2.50;;;;;;;22.03;61.62;96537.13;10326331;28;20489;-33
2023/07/11 20:36:42;;;;;;;3.20;2.20;;;;;;;22.00;61.61;96517.66;10324446;28;20535;-32
2023/07/11 20:41:43;;;;;;;2.33;2.13;;;;;;;21.98;61.38;96513.44;10325238;28;20301;-32
2023/07/11 20:46:43;;;;;;;5.53;2.07;;;;;;;21.98;61.65;96514.28;10326008;28;20041;-32
2023/07/11 20:51:43;;;;;;;4.40;2.40;;;;;;;21.95;61.33;96534.72;10325269;28;20041;-32
2023/07/11 20:56:44;;;;;;;2.63;1.83;;;;;;;22.06;62.70;96577.91;10322690;28;20039;-32
2023/07/11 21:01:44;;;;;;;2.85;2.03;;;;;;;22.29;62.70;96574.09;10332600;28;20038;-32
2023/07/11 21:06:44;;;;;;;3.10;2.17;;;;;;;22.32;61.60;96561.28;10332434;28;20049;-32
2023/07/11 21:11:46;;;;;;;3.60;2.10;;;;;;;22.11;61.28;96444.38;10331642;28;20036;-32
2023/07/11 21:16:46;;;;;;;2.10;1.90;;;;;;;22.02;61.27;96379.94;10331032;28;20136;-32
2023/07/11 21:21:47;;;;;;;2.77;1.90;;;;;;;22.00;61.07;96428.44;10326481;28;20150;-31
2023/07/11 21:26:47;;;;;;;2.85;2.03;;;;;;;22.03;61.14;96441.09;10331788;28;20041;-32
2023/07/11 21:31:48;;;;;;;2.60;2.10;;;;;;;21.97;61.22;96418.28;10331311;28;20125;-32
2023/07/11 21:36:49;;;;;;;3.00;2.03;;;;;;;21.96;61.18;96416.59;10331169;28;20416;-33
2023/07/11 21:41:50;;;;;;;2.27;1.80;;;;;;;21.97;61.08;96420.81;10331556;28;20038;-33
2023/07/11 21:46:51;;;;;;;1.70;1.58;;;;;;;22.15;62.29;96412.81;10330852;28;20049;-32
2023/07/11 21:51:51;;;;;;;2.20;1.70;;;;;;;22.35;61.87;96381.81;10330996;28;20034;-32
2023/07/11 21:56:51;;;;;;;1.90;1.70;;;;;;;22.27;61.34;96356.50;10331190;28;20038;-32
2023/07/11 22:01:52;;;;;;;2.17;1.97;;;;;;;22.17;61.26;96344.81;10330488;28;20408;-32
2023/07/11 22:06:52;;;;;;;2.60;1.48;;;;;;;22.07;61.03;96347.56;10322922;28;20548;-32
2023/07/11 22:11:52;;;;;;;3.30;2.00;;;;;;;22.03;60.99;96354.44;10330498;28;20503;-33
2023/07/11 22:16:55;;;;;;;2.80;1.70;;;;;;;22.01;60.94;96342.56;10329311;28;20056;-33
2023/07/11 22:21:55;;;;;;;2.60;1.90;;;;;;;21.98;60.90;96365.59;10329366;28;20489;-33
2023/07/11 22:26:55;;;;;;;2.10;1.50;;;;;;;21.97;60.93;96408.06;10329674;28;20088;-32
2023/07/11 22:31:56;;;;;;;2.53;1.60;;;;;;;21.98;60.90;96416.56;10329296;28;20830;-32
2023/07/11 22:36:57;;;;;;;2.90;1.55;;;;;;;22.23;62.31;96439.03;10329513;28;20037;-31
2023/07/11 22:41:58;;;;;;;4.20;1.50;;;;;;;22.36;61.02;96417.50;10328361;28;20034;-32
2023/07/11 22:46:58;;;;;;;1.70;1.50;;;;;;;22.23;61.50;96415.25;10325049;28;20034;-32
2023/07/11 22:51:59;;;;;;;1.73;1.53;;;;;;;22.13;60.96;96391.63;10328643;28;20050;-32
2023/07/11 22:56:59;;;;;;;2.40;1.57;;;;;;;22.09;60.86;96384.06;10328504;28;20505;-32
2023/07/11 23:02:00;;;;;;;2.03;1.48;;;;;;;22.08;60.84;96398.50;10327998;28;20038;-33
2023/07/11 23:07:00;;;;;;;3.47;1.60;;;;;;;22.09;61.03;96418.06;10325923;28;20034;-33
2023/07/11 23:12:00;;;;;;;2.60;1.40;;;;;;;22.03;60.86;96389.28;10327536;28;20030;-39
2023/07/11 23:17:01;;;;;;;3.80;1.53;;;;;;;22.14;63.17;96451.94;10323467;28;20125;-33
2023/07/11 23:22:01;;;;;;;3.43;1.50;;;;;;;22.15;63.29;96450.25;10327554;28;20065;-33
2023/07/11 23:27:02;;;;;;;1.80;1.30;;;;;;;22.33;61.96;96483.88;10327721;28;20030;-33
2023/07/11 23:32:02;;;;;;;2.05;1.48;;;;;;;22.39;60.98;96425.09;10326857;28;20354;-31